Time;durP1;ratioP1;P1;durP2;ratioP2;P2;SDS_P1;SDS_P2;PMS_P1;PMS_P2;Temp;Humidity;BMP_temperature;BMP_pressure;BME280_temperature;BME280_humidity;BME280_pressure;Samples;Min_cycle;Max_cycle;Signal;HPM_P1;HPM_P2
2023/05/13 00:09:10;;;;;;;6.50;5.22;;;;;;;22.35;47.87;100696.06;41519450;28;20046;-83
2023/05/13 00:29:10;;;;;;;5.03;4.45;;;;;;;22.35;48.32;100689.00;41509500;28;20046;-84
2023/05/13 00:49:11;;;;;;;6.90;4.78;;;;;;;22.33;48.33;100705.91;41511964;28;20100;-84
2023/05/13 01:09:23;;;;;;;4.63;4.10;;;;;;;22.25;48.10;100710.94;41529144;28;20072;-83
2023/05/13 01:29:24;;;;;;;4.53;3.78;;;;;;;22.22;48.39;100712.84;41525181;28;20045;-85
2023/05/13 01:49:25;;;;;;;4.60;3.65;;;;;;;22.23;48.14;100717.16;41531291;28;20128;-82
2023/05/13 02:09:27;;;;;;;5.53;3.58;;;;;;;22.19;48.22;100718.38;41509413;28;20080;-85
2023/05/13 02:29:29;;;;;;;3.65;3.20;;;;;;;22.19;48.06;100723.66;41496389;28;20463;-83
2023/05/13 02:49:29;;;;;;;3.63;3.33;;;;;;;22.15;48.08;100729.25;41509436;28;20037;-82
2023/05/13 03:09:30;;;;;;;3.30;3.00;;;;;;;22.19;47.98;100725.41;41524901;28;20058;-85
2023/05/13 03:29:30;;;;;;;3.03;2.78;;;;;;;22.11;47.88;100735.75;41547726;28;20053;-83
2023/05/13 03:49:31;;;;;;;3.30;2.50;;;;;;;22.07;48.11;100754.41;41512993;28;20026;-84
2023/05/13 04:09:31;;;;;;;2.75;2.55;;;;;;;22.04;48.27;100772.28;41505398;28;20088;-81
2023/05/13 04:29:32;;;;;;;2.78;2.47;;;;;;;22.01;48.67;100789.16;41475644;28;20050;-84
2023/05/13 04:49:32;;;;;;;3.45;2.20;;;;;;;22.00;48.65;100799.84;41481663;28;20045;-83
2023/05/13 05:09:33;;;;;;;5.53;2.17;;;;;;;22.16;48.87;100818.81;41458124;28;20128;-81
2023/05/13 05:29:33;;;;;;;5.78;2.22;;;;;;;22.15;46.73;100822.41;41468459;28;21858;-76
2023/05/13 05:49:34;;;;;;;12.73;2.10;;;;;;;22.05;45.52;100819.63;41478458;28;20041;-78
2023/05/13 06:09:34;;;;;;;4.05;2.90;;;;;;;21.97;45.61;100835.19;41464970;28;20045;-79
2023/05/13 06:29:35;;;;;;;3.10;2.28;;;;;;;21.89;44.86;100848.91;41486696;28;20104;-75
2023/05/13 06:49:35;;;;;;;2.97;2.33;;;;;;;21.86;44.79;100846.50;41501892;28;20108;-78
2023/05/13 07:09:36;;;;;;;51.75;29.95;;;;;;;21.80;45.16;100843.47;41490087;28;20579;-80
2023/05/13 07:29:36;;;;;;;28.50;15.35;;;;;;;21.71;45.27;100850.25;41540846;28;20038;-81
2023/05/13 07:49:37;;;;;;;17.55;9.35;;;;;;;21.63;44.68;100866.63;41500222;28;20476;-82
2023/05/13 08:09:37;;;;;;;12.57;6.65;;;;;;;21.60;44.28;100880.00;41497880;28;20058;-84
2023/05/13 08:29:40;;;;;;;11.93;6.57;;;;;;;21.56;44.90;100895.19;41502520;28;20037;-82
2023/05/13 08:49:44;;;;;;;7.55;5.10;;;;;;;21.50;45.09;100908.78;41496984;28;20041;-80
2023/05/13 09:09:44;;;;;;;8.40;5.20;;;;;;;21.60;46.36;100906.38;41511435;28;20616;-83
2023/05/13 09:29:48;;;;;;;10.27;5.05;;;;;;;21.73;47.31;100915.09;41454200;28;20073;-77
2023/05/13 09:49:55;;;;;;;8.02;4.60;;;;;;;21.82;47.56;100908.31;41487737;28;20508;-78
2023/05/13 10:10:02;;;;;;;8.70;4.40;;;;;;;21.92;47.73;100903.22;41448187;28;20038;-78
2023/05/13 10:30:09;;;;;;;9.25;4.82;;;;;;;22.02;46.02;100893.69;41457643;28;20034;-77
2023/05/13 10:50:24;;;;;;;8.07;4.07;;;;;;;22.13;47.04;100897.31;41444796;28;20095;-80
2023/05/13 11:10:31;;;;;;;5.78;4.22;;;;;;;22.19;45.08;100895.09;41483905;28;20069;-81
2023/05/13 11:30:39;;;;;;;15.23;3.50;;;;;;;22.33;46.46;100887.94;41528465;28;20042;-81
2023/05/13 11:50:42;;;;;;;4.63;2.78;;;;;;;22.45;46.67;100894.13;41556582;28;20680;-81
2023/05/13 12:10:48;;;;;;;5.70;2.50;;;;;;;22.53;46.42;100902.31;41582274;28;20065;-81
2023/05/13 12:30:59;;;;;;;6.05;2.42;;;;;;;22.59;46.41;100901.84;41565130;28;20089;-81
2023/05/13 12:51:11;;;;;;;6.13;2.45;;;;;;;22.66;46.58;100897.78;41546510;28;20041;-80
2023/05/13 13:11:17;;;;;;;5.18;2.65;;;;;;;22.70;46.17;100893.13;41537043;28;20046;-78
2023/05/13 13:31:18;;;;;;;2.90;2.40;;;;;;;22.75;46.02;100890.13;41527080;28;20408;-81
2023/05/13 13:51:25;;;;;;;6.43;2.40;;;;;;;22.81;46.12;100898.44;41503902;28;20046;-82
2023/05/13 14:11:25;;;;;;;3.80;2.13;;;;;;;22.81;45.94;100889.66;41491220;28;20057;-77
2023/05/13 14:31:26;;;;;;;2.45;1.95;;;;;;;22.76;45.50;100857.50;41490405;28;20042;-77
2023/05/13 14:51:27;;;;;;;4.40;2.00;;;;;;;22.76;45.52;100857.50;41514549;28;20034;-77
2023/05/13 15:11:28;;;;;;;3.45;1.95;;;;;;;22.77;45.25;100856.53;41518166;28;20049;-76
2023/05/13 15:31:30;;;;;;;2.00;1.80;;;;;;;22.76;45.74;100855.69;41508581;28;20049;-78
2023/05/13 15:51:32;;;;;;;2.35;1.80;;;;;;;22.77;45.74;100846.81;41520839;28;20083;-77
2023/05/13 16:11:32;;;;;;;3.28;2.08;;;;;;;22.75;45.46;100858.47;41524992;28;20065;-78
2023/05/13 16:31:39;;;;;;;2.97;1.80;;;;;;;22.74;45.66;100844.44;41508738;28;20103;-78
2023/05/13 16:51:40;;;;;;;5.65;2.03;;;;;;;22.64;45.56;100838.16;41518675;28;20064;-79
2023/05/13 17:11:40;;;;;;;6.72;2.53;;;;;;;22.57;45.03;100826.38;41523705;28;20045;-76
2023/05/13 17:31:41;;;;;;;17.58;6.50;;;;;;;22.48;44.36;100838.50;41529468;28;20108;-78
2023/05/13 17:51:44;;;;;;;9.25;4.13;;;;;;;22.38;43.46;100825.16;41518515;28;20409;-80
2023/05/13 18:11:44;;;;;;;6.97;3.45;;;;;;;22.32;43.09;100836.13;41446374;28;20042;-79
2023/05/13 18:31:47;;;;;;;7.80;3.15;;;;;;;22.22;43.49;100812.25;41477270;28;20263;-79
2023/05/13 18:51:47;;;;;;;7.35;3.35;;;;;;;22.17;43.00;100854.78;41472706;28;20045;-79
2023/05/13 19:11:54;;;;;;;3.92;2.70;;;;;;;22.10;42.83;100860.66;41474890;28;20602;-79
2023/05/13 19:31:55;;;;;;;3.40;2.70;;;;;;;22.04;43.81;100864.56;41503045;28;20041;-83
2023/05/13 19:51:56;;;;;;;7.82;3.05;;;;;;;21.86;44.98;100858.84;41505210;28;20038;-81
2023/05/13 20:12:00;;;;;;;7.20;3.13;;;;;;;21.88;45.62;100860.41;41518293;28;20103;-81
2023/05/13 20:32:01;;;;;;;3.65;2.80;;;;;;;21.91;46.10;100854.09;41515031;28;20052;-82
2023/05/13 20:52:02;;;;;;;4.50;2.90;;;;;;;21.87;46.98;100836.78;41496670;28;20064;-78
2023/05/13 21:12:04;;;;;;;3.58;2.72;;;;;;;21.80;47.04;100828.50;41509537;28;20068;-78
2023/05/13 21:32:04;;;;;;;3.45;2.88;;;;;;;21.79;47.35;100824.19;41493157;28;20140;-79
2023/05/13 21:52:05;;;;;;;2.83;2.53;;;;;;;21.85;47.09;100815.81;41468849;28;20149;-78
2023/05/13 22:12:06;;;;;;;2.88;2.67;;;;;;;21.80;47.41;100804.78;41493338;28;20044;-81
2023/05/13 22:32:06;;;;;;;2.72;2.30;;;;;;;21.77;47.57;100804.16;41496243;28;20092;-80
2023/05/13 22:52:08;;;;;;;2.83;2.17;;;;;;;21.75;47.82;100802.47;41500177;28;20041;-81
2023/05/13 23:12:08;;;;;;;2.72;2.50;;;;;;;21.73;47.83;100795.66;41532663;28;20040;-81
2023/05/13 23:32:11;;;;;;;2.47;2.28;;;;;;;21.73;47.75;100796.47;41519059;28;20137;-82
2023/05/13 23:52:13;;;;;;;2.67;2.28;;;;;;;21.71;48.13;100773.81;41513094;28;20592;-81
